createdAt,value
2023-06-07T00:01:01.001Z,13.13
2023-06-07T00:03:29.646Z,13.05
2023-06-07T00:06:02.207Z,13.01
2023-06-07T00:08:32.605Z,13.00
2023-06-07T00:11:01.486Z,13.00
2023-06-07T00:13:30.103Z,13.00
2023-06-07T00:16:00.005Z,13.00
2023-06-07T00:18:29.710Z,13.03
2023-06-07T00:20:59.014Z,13.02
2023-06-07T00:23:30.157Z,12.92
2023-06-07T00:26:01.247Z,12.87
2023-06-07T00:28:30.099Z,12.89
2023-06-07T00:30:58.754Z,12.92
2023-06-07T00:33:27.275Z,12.85
2023-06-07T00:35:55.712Z,12.77
2023-06-07T00:38:25.318Z,12.71
2023-06-07T00:40:54.284Z,12.69
2023-06-07T00:43:25.854Z,12.70
2023-06-07T00:45:54.528Z,12.69
2023-06-07T00:48:26.237Z,12.57
2023-06-07T00:50:55.060Z,12.53
2023-06-07T00:53:24.422Z,12.52
2023-06-07T00:55:52.881Z,12.56
2023-06-07T00:58:25.550Z,12.57
2023-06-07T01:00:54.586Z,12.58
2023-06-07T01:03:25.181Z,12.54
2023-06-07T01:05:54.017Z,12.53
2023-06-07T01:08:23.259Z,12.51
2023-06-07T01:10:52.835Z,12.49
2023-06-07T01:13:21.964Z,12.50
2023-06-07T01:15:52.425Z,12.49
2023-06-07T01:18:21.513Z,12.48
2023-06-07T01:20:56.637Z,12.44
2023-06-07T01:23:33.166Z,12.37
2023-06-07T01:26:03.896Z,12.40
2023-06-07T01:28:36.319Z,12.39
2023-06-07T01:31:05.230Z,12.22
2023-06-07T01:33:36.236Z,11.66
2023-06-07T01:36:07.880Z,11.54
2023-06-07T01:38:38.548Z,11.63
2023-06-07T01:41:07.935Z,11.79
2023-06-07T01:43:37.949Z,11.89
2023-06-07T01:46:08.084Z,12.00
2023-06-07T01:48:36.876Z,12.11
2023-06-07T01:51:05.587Z,12.18
2023-06-07T01:53:35.688Z,12.33
2023-06-07T01:56:13.474Z,12.39
2023-06-07T01:58:52.944Z,12.39
2023-06-07T02:01:28.720Z,12.43
2023-06-07T02:03:58.356Z,12.38
2023-06-07T02:06:32.680Z,12.39
2023-06-07T02:09:08.119Z,12.39
2023-06-07T02:11:40.860Z,12.51
2023-06-07T02:14:10.244Z,12.57
2023-06-07T02:16:39.385Z,12.58
2023-06-07T02:19:09.545Z,12.54
2023-06-07T02:21:39.866Z,12.48
2023-06-07T02:24:09.500Z,12.51
2023-06-07T02:26:39.951Z,12.54
2023-06-07T02:29:10.161Z,12.59
2023-06-07T02:31:38.672Z,12.63
2023-06-07T02:34:08.296Z,12.72
2023-06-07T02:36:41.199Z,12.83
2023-06-07T02:39:10.144Z,12.94
2023-06-07T02:41:41.418Z,13.00
2023-06-07T02:44:10.069Z,13.04
2023-06-07T02:46:38.835Z,13.04
2023-06-07T02:49:07.208Z,13.07
2023-06-07T02:51:38.691Z,13.07
2023-06-07T02:54:11.116Z,13.11
2023-06-07T02:56:41.156Z,13.08
2023-06-07T02:59:09.499Z,13.15
2023-06-07T03:01:39.516Z,13.19
2023-06-07T03:04:08.228Z,13.21
2023-06-07T03:06:36.746Z,13.25
2023-06-07T03:09:06.220Z,13.27
2023-06-07T03:11:34.699Z,13.30
2023-06-07T03:14:04.963Z,13.24
2023-06-07T03:16:33.647Z,13.24
2023-06-07T03:19:02.467Z,13.12
2023-06-07T03:21:31.319Z,13.07
2023-06-07T03:23:59.782Z,13.09
2023-06-07T03:26:28.341Z,13.09
2023-06-07T03:28:57.791Z,13.05
2023-06-07T03:31:29.965Z,12.88
2023-06-07T03:34:00.196Z,12.80
2023-06-07T03:36:30.464Z,12.74
2023-06-07T03:38:59.876Z,12.70
2023-06-07T03:41:29.097Z,12.60
2023-06-07T03:43:57.774Z,12.55
2023-06-07T03:46:27.543Z,12.60
2023-06-07T03:48:56.193Z,12.68
2023-06-07T03:51:24.797Z,12.79
2023-06-07T03:53:53.564Z,12.84
2023-06-07T03:56:22.398Z,12.83
2023-06-07T03:58:50.958Z,12.72
2023-06-07T04:01:19.511Z,12.67
2023-06-07T04:03:49.749Z,12.59
2023-06-07T04:06:21.701Z,12.57
2023-06-07T04:08:52.189Z,12.53
2023-06-07T04:11:21.116Z,12.54
2023-06-07T04:13:49.852Z,12.53
2023-06-07T04:16:18.569Z,12.61
2023-06-07T04:18:48.752Z,12.72
2023-06-07T04:21:17.414Z,12.77
2023-06-07T04:23:46.572Z,12.68
2023-06-07T04:26:19.821Z,12.72
2023-06-07T04:28:49.263Z,12.70
2023-06-07T04:31:18.321Z,12.70
2023-06-07T04:33:49.042Z,12.80
2023-06-07T04:36:20.474Z,12.94
2023-06-07T04:38:57.903Z,12.97
2023-06-07T04:41:32.175Z,13.11
2023-06-07T04:44:02.204Z,13.00
2023-06-07T04:46:32.303Z,13.02
2023-06-07T04:49:02.522Z,12.71
2023-06-07T04:51:31.489Z,12.65
2023-06-07T04:54:06.092Z,12.61
2023-06-07T04:56:34.996Z,12.51
2023-06-07T04:59:03.660Z,12.58
2023-06-07T05:01:34.580Z,12.61
2023-06-07T05:04:05.317Z,12.63
2023-06-07T05:06:38.503Z,12.58
2023-06-07T05:09:08.508Z,12.52
2023-06-07T05:11:37.120Z,12.41
2023-06-07T05:14:05.910Z,12.49
2023-06-07T05:16:34.543Z,12.40
2023-06-07T05:19:05.094Z,12.41
2023-06-07T05:21:33.746Z,12.55
2023-06-07T05:24:02.531Z,12.42
2023-06-07T05:26:31.409Z,12.38
2023-06-07T05:28:59.802Z,12.42
2023-06-07T05:31:28.573Z,12.48
2023-06-07T05:33:57.338Z,12.46
2023-06-07T05:37:01.866Z,12.52
2023-06-07T05:39:30.851Z,12.64
2023-06-07T05:41:59.492Z,12.60
2023-06-07T05:44:28.130Z,12.58
2023-06-07T05:47:04.474Z,12.59
2023-06-07T05:49:35.574Z,12.59
2023-06-07T05:52:08.153Z,12.62
2023-06-07T05:54:36.680Z,12.75
2023-06-07T05:57:05.648Z,12.65
2023-06-07T05:59:34.299Z,12.73
2023-06-07T06:02:03.253Z,12.75
2023-06-07T06:04:32.150Z,12.82
2023-06-07T06:07:01.777Z,12.78
2023-06-07T06:09:32.090Z,12.71
2023-06-07T06:12:00.983Z,12.77
2023-06-07T06:14:36.280Z,12.94
2023-06-07T06:17:05.138Z,13.12
2023-06-07T06:19:35.983Z,13.20
2023-06-07T06:22:04.357Z,13.18
2023-06-07T06:24:34.189Z,13.25
2023-06-07T06:27:02.966Z,13.16
2023-06-07T06:29:31.969Z,13.37
2023-06-07T06:32:03.087Z,13.32
2023-06-07T06:34:31.902Z,13.35
2023-06-07T06:37:06.376Z,13.33
2023-06-07T06:39:36.527Z,13.35
2023-06-07T06:42:10.467Z,13.50
2023-06-07T06:44:40.581Z,13.77
2023-06-07T06:47:11.036Z,13.64
2023-06-07T06:49:40.505Z,13.78
2023-06-07T06:52:09.970Z,13.98
2023-06-07T06:54:43.911Z,13.84
2023-06-07T06:57:18.401Z,13.72
2023-06-07T06:59:49.837Z,13.63
2023-06-07T07:02:20.277Z,13.57
2023-06-07T07:04:48.731Z,13.59
2023-06-07T07:07:18.646Z,13.47
2023-06-07T07:09:56.388Z,13.54
2023-06-07T07:12:24.818Z,13.59
2023-06-07T07:14:53.300Z,13.39
2023-06-07T07:17:23.636Z,13.54
2023-06-07T07:19:52.351Z,13.60
2023-06-07T07:22:22.070Z,13.34
2023-06-07T07:24:51.613Z,13.45
2023-06-07T07:27:24.424Z,13.49
2023-06-07T07:29:53.381Z,13.41
2023-06-07T07:32:22.919Z,13.51
2023-06-07T07:34:52.643Z,13.45
2023-06-07T07:37:24.374Z,13.43
2023-06-07T07:39:53.088Z,13.55
2023-06-07T07:42:27.438Z,13.46
2023-06-07T07:44:58.114Z,13.39
2023-06-07T07:47:27.073Z,13.37
2023-06-07T07:50:01.992Z,13.58
2023-06-07T07:52:33.263Z,13.79
2023-06-07T07:55:04.233Z,13.77
2023-06-07T07:57:35.003Z,13.68
2023-06-07T08:00:08.924Z,13.60
2023-06-07T08:02:38.345Z,13.62
2023-06-07T08:05:08.588Z,13.61
2023-06-07T08:07:37.189Z,13.72
2023-06-07T08:10:07.108Z,13.69
2023-06-07T08:12:53.390Z,13.71
2023-06-07T08:15:22.054Z,14.02
2023-06-07T08:17:51.745Z,14.06
2023-06-07T08:20:20.564Z,13.96
2023-06-07T08:22:51.946Z,13.94
2023-06-07T08:25:21.644Z,13.50
2023-06-07T08:27:53.039Z,13.49
2023-06-07T08:30:25.583Z,13.68
2023-06-07T08:33:10.172Z,13.69
2023-06-07T08:35:39.960Z,13.61
2023-06-07T08:38:16.718Z,13.43
2023-06-07T08:40:46.817Z,13.51
2023-06-07T08:43:16.879Z,13.35
2023-06-07T08:45:46.828Z,13.37
2023-06-07T08:48:17.073Z,13.50
2023-06-07T08:50:58.575Z,13.68
2023-06-07T08:53:30.207Z,13.89
2023-06-07T08:56:00.978Z,13.63
2023-06-07T08:58:34.189Z,13.64
2023-06-07T09:01:03.083Z,13.42
2023-06-07T09:03:34.629Z,13.53
2023-06-07T09:06:05.758Z,13.61
2023-06-07T09:08:36.237Z,13.82
2023-06-07T09:11:05.403Z,13.75
2023-06-07T09:13:36.058Z,13.71
2023-06-07T09:16:05.916Z,13.47
2023-06-07T09:18:45.195Z,13.51
2023-06-07T09:21:29.406Z,13.61
2023-06-07T09:24:02.785Z,13.61
2023-06-07T09:26:40.031Z,13.66
2023-06-07T09:29:13.192Z,13.68
2023-06-07T09:31:41.489Z,13.78
2023-06-07T09:34:23.787Z,13.76
2023-06-07T09:36:56.902Z,13.71
2023-06-07T09:39:27.747Z,13.81
2023-06-07T09:42:00.075Z,13.89
2023-06-07T09:44:32.971Z,13.73
2023-06-07T09:47:23.992Z,13.69
2023-06-07T09:49:58.344Z,13.94
2023-06-07T09:52:30.776Z,13.92
2023-06-07T09:55:10.843Z,14.03
2023-06-07T09:57:44.194Z,13.88
2023-06-07T10:00:34.308Z,14.08
2023-06-07T10:03:16.245Z,14.13
2023-06-07T10:05:48.837Z,13.99
2023-06-07T10:08:31.996Z,13.93
2023-06-07T10:11:03.046Z,13.96
2023-06-07T10:13:32.314Z,13.98
2023-06-07T10:16:16.379Z,14.17
2023-06-07T10:18:46.239Z,13.70
2023-06-07T10:21:20.942Z,13.76
2023-06-07T10:23:54.038Z,13.84
2023-06-07T10:26:28.518Z,13.89
2023-06-07T10:29:09.197Z,13.89
2023-06-07T10:31:51.767Z,13.81
2023-06-07T10:34:28.004Z,14.03
2023-06-07T10:37:02.660Z,13.88
2023-06-07T10:39:49.146Z,14.11
2023-06-07T10:42:18.703Z,13.92
2023-06-07T10:44:48.448Z,13.70
2023-06-07T10:47:32.022Z,14.01
2023-06-07T10:50:01.158Z,13.98
2023-06-07T10:52:29.965Z,13.80
2023-06-07T10:55:01.530Z,13.77
2023-06-07T10:57:38.773Z,14.43
2023-06-07T11:00:29.937Z,14.97
2023-06-07T11:03:36.647Z,15.03
2023-06-07T11:06:07.977Z,15.23
2023-06-07T11:08:41.385Z,14.93
2023-06-07T11:11:53.669Z,15.25
2023-06-07T11:14:21.964Z,15.62
2023-06-07T11:16:51.028Z,15.24
2023-06-07T11:19:21.381Z,15.56
2023-06-07T11:22:10.353Z,15.86
2023-06-07T11:24:40.033Z,15.69
2023-06-07T11:27:17.408Z,16.12
2023-06-07T11:29:48.449Z,15.87
2023-06-07T11:32:17.333Z,16.06
2023-06-07T11:34:58.275Z,15.54
2023-06-07T11:37:28.298Z,15.59
2023-06-07T11:40:02.488Z,15.20
2023-06-07T11:42:32.639Z,15.91
2023-06-07T11:45:03.436Z,16.10
2023-06-07T11:47:32.765Z,16.22
2023-06-07T11:50:01.505Z,15.61
2023-06-07T11:52:31.739Z,15.80
2023-06-07T11:55:00.275Z,15.82
2023-06-07T11:57:33.786Z,16.02
2023-06-07T12:00:06.609Z,16.37
2023-06-07T12:02:41.852Z,15.94
2023-06-07T12:05:12.431Z,16.14
2023-06-07T12:07:44.167Z,16.75
2023-06-07T12:10:14.039Z,16.81
2023-06-07T12:12:43.804Z,16.70
2023-06-07T12:15:12.165Z,16.95
2023-06-07T12:17:41.476Z,16.43
2023-06-07T12:20:12.942Z,16.70
2023-06-07T12:22:43.922Z,16.43
2023-06-07T12:25:16.655Z,16.21
2023-06-07T12:27:47.174Z,16.75
2023-06-07T12:30:16.119Z,16.64
2023-06-07T12:32:45.741Z,16.80
2023-06-07T12:35:15.347Z,17.00
2023-06-07T12:37:46.004Z,16.33
2023-06-07T12:40:15.032Z,16.72
2023-06-07T12:42:45.400Z,16.75
2023-06-07T12:45:14.194Z,17.30
2023-06-07T12:47:43.028Z,17.63
2023-06-07T12:50:12.861Z,17.40
2023-06-07T12:52:41.752Z,16.91
2023-06-07T12:55:12.915Z,16.69
2023-06-07T12:57:41.633Z,17.06
2023-06-07T13:00:11.441Z,16.62
2023-06-07T13:02:40.655Z,16.49
2023-06-07T13:05:12.276Z,16.75
2023-06-07T13:07:43.114Z,16.64
2023-06-07T13:10:14.862Z,16.91
2023-06-07T13:12:43.322Z,16.76
2023-06-07T13:15:12.924Z,16.59
2023-06-07T13:17:41.898Z,16.82
2023-06-07T13:20:11.232Z,17.25
2023-06-07T13:22:39.624Z,16.58
2023-06-07T13:25:09.355Z,16.18
2023-06-07T13:27:39.829Z,16.03
2023-06-07T13:30:10.503Z,15.90
2023-06-07T13:32:39.115Z,16.14
2023-06-07T13:35:08.188Z,16.04
2023-06-07T13:37:37.066Z,16.38
2023-06-07T13:40:06.299Z,16.12
2023-06-07T13:42:35.349Z,16.26
2023-06-07T13:45:06.008Z,16.43
2023-06-07T13:47:34.580Z,17.16
2023-06-07T13:50:03.749Z,16.04
2023-06-07T13:52:34.589Z,16.66
2023-06-07T13:55:03.929Z,16.95
2023-06-07T13:57:32.794Z,16.56
2023-06-07T14:00:06.577Z,17.02
2023-06-07T14:02:35.706Z,17.11
2023-06-07T14:05:04.757Z,17.13
2023-06-07T14:07:34.330Z,17.64
2023-06-07T14:10:03.114Z,18.45
2023-06-07T14:12:31.875Z,18.15
2023-06-07T14:15:00.437Z,18.16
2023-06-07T14:17:30.710Z,16.85
2023-06-07T14:19:59.489Z,16.43
2023-06-07T14:22:29.988Z,17.00
2023-06-07T14:25:05.276Z,16.88
2023-06-07T14:27:33.924Z,16.53
2023-06-07T14:30:18.114Z,16.39
2023-06-07T14:32:48.326Z,16.90
2023-06-07T14:35:16.808Z,17.50
2023-06-07T14:37:45.325Z,17.23
2023-06-07T14:40:14.701Z,16.74
2023-06-07T14:42:43.125Z,16.35
2023-06-07T14:45:12.544Z,16.74
2023-06-07T14:47:41.152Z,16.86
2023-06-07T14:50:12.495Z,17.02
2023-06-07T14:52:40.931Z,16.90
2023-06-07T14:55:11.392Z,17.62
2023-06-07T14:57:39.983Z,16.72
2023-06-07T15:00:11.067Z,17.05
2023-06-07T15:02:39.745Z,17.48
2023-06-07T15:05:11.440Z,17.15
2023-06-07T15:07:39.868Z,16.99
2023-06-07T15:10:09.751Z,16.72
2023-06-07T15:12:39.336Z,16.57
2023-06-07T15:15:09.262Z,17.42
2023-06-07T15:17:38.110Z,16.65
2023-06-07T15:20:08.778Z,17.86
2023-06-07T15:22:40.184Z,17.96
2023-06-07T15:25:10.401Z,18.94
2023-06-07T15:27:39.003Z,20.29
2023-06-07T15:30:09.647Z,20.29
2023-06-07T15:32:38.176Z,19.10
2023-06-07T15:35:09.186Z,18.25
2023-06-07T15:37:40.935Z,19.88
2023-06-07T15:40:10.521Z,19.54
2023-06-07T15:42:39.556Z,19.82
2023-06-07T15:45:09.735Z,19.48
2023-06-07T15:47:38.280Z,20.00
2023-06-07T15:50:08.331Z,20.26
2023-06-07T15:52:37.194Z,18.36
2023-06-07T15:55:09.354Z,17.85
2023-06-07T15:57:38.217Z,18.76
2023-06-07T16:00:27.179Z,20.19
2023-06-07T16:03:01.494Z,20.74
2023-06-07T16:05:30.701Z,18.87
2023-06-07T16:08:04.441Z,18.13
2023-06-07T16:10:35.356Z,19.30
2023-06-07T16:13:03.813Z,18.98
2023-06-07T16:15:32.694Z,18.46
2023-06-07T16:18:01.300Z,18.17
2023-06-07T16:20:30.056Z,17.84
2023-06-07T16:22:58.608Z,17.09
2023-06-07T16:25:27.332Z,19.50
2023-06-07T16:27:57.737Z,20.10
2023-06-07T16:30:26.962Z,20.11
2023-06-07T16:32:58.407Z,19.79
2023-06-07T16:35:26.879Z,20.00
2023-06-07T16:37:55.670Z,19.67
2023-06-07T16:40:24.596Z,19.09
2023-06-07T16:42:53.314Z,20.15
2023-06-07T16:45:23.613Z,20.32
2023-06-07T16:47:52.384Z,22.28
2023-06-07T16:50:21.193Z,20.00
2023-06-07T16:52:49.782Z,17.50
2023-06-07T16:55:18.436Z,18.06
2023-06-07T16:57:46.917Z,17.95
2023-06-07T17:00:16.406Z,17.45
2023-06-07T17:02:49.104Z,16.88
2023-06-07T17:05:20.011Z,16.69
2023-06-07T17:07:48.833Z,17.08
2023-06-07T17:10:17.419Z,18.87
2023-06-07T17:12:46.221Z,18.43
2023-06-07T17:15:15.195Z,17.50
2023-06-07T17:17:43.705Z,17.96
2023-06-07T17:20:14.788Z,18.70
2023-06-07T17:22:43.566Z,19.47
2023-06-07T17:25:12.204Z,18.70
2023-06-07T17:27:41.414Z,19.48
2023-06-07T17:30:11.576Z,19.46
2023-06-07T17:32:40.306Z,19.79
2023-06-07T17:35:09.929Z,19.82
2023-06-07T17:37:40.048Z,19.37
2023-06-07T17:40:10.119Z,18.76
2023-06-07T17:42:39.191Z,20.02
2023-06-07T17:45:09.011Z,19.53
2023-06-07T17:47:51.933Z,18.40
2023-06-07T17:50:32.772Z,17.94
2023-06-07T17:53:16.704Z,19.39
2023-06-07T17:55:46.829Z,20.59
2023-06-07T17:58:25.809Z,20.10
2023-06-07T18:01:00.415Z,19.54
2023-06-07T18:03:28.860Z,19.77
2023-06-07T18:05:57.375Z,19.55
2023-06-07T18:08:29.398Z,20.69
2023-06-07T18:10:58.776Z,20.69
2023-06-07T18:13:27.463Z,20.92
2023-06-07T18:15:59.620Z,20.49
2023-06-07T18:18:28.086Z,19.70
2023-06-07T18:20:56.815Z,19.62
2023-06-07T18:23:26.818Z,20.24
2023-06-07T18:25:55.374Z,20.48
2023-06-07T18:28:23.866Z,20.23
2023-06-07T18:30:52.345Z,19.82
2023-06-07T18:33:22.092Z,19.41
2023-06-07T18:35:50.690Z,20.18
2023-06-07T18:38:20.389Z,19.85
2023-06-07T18:40:52.976Z,19.44
2023-06-07T18:43:22.046Z,19.48
2023-06-07T18:45:50.714Z,19.21
2023-06-07T18:48:19.712Z,19.27
2023-06-07T18:50:48.359Z,19.50
2023-06-07T18:53:16.715Z,19.24
2023-06-07T18:55:45.128Z,18.58
2023-06-07T18:58:17.900Z,17.79
2023-06-07T19:00:49.750Z,17.59
2023-06-07T19:03:18.479Z,17.68
2023-06-07T19:05:46.979Z,17.94
2023-06-07T19:08:16.006Z,17.55
2023-06-07T19:10:45.519Z,17.86
2023-06-07T19:13:15.854Z,17.78
2023-06-07T19:15:44.460Z,17.65
2023-06-07T19:18:14.280Z,17.05
2023-06-07T19:20:42.900Z,16.43
2023-06-07T19:23:11.288Z,15.99
2023-06-07T19:25:40.700Z,15.90
2023-06-07T19:28:09.414Z,15.75
2023-06-07T19:30:39.602Z,15.75
2023-06-07T19:33:11.205Z,15.41
2023-06-07T19:35:39.794Z,15.46
2023-06-07T19:38:09.055Z,15.31
2023-06-07T19:40:37.396Z,15.45
2023-06-07T19:43:05.962Z,15.57
2023-06-07T19:45:38.545Z,15.43
2023-06-07T19:48:07.946Z,15.11
2023-06-07T19:50:38.365Z,15.15
2023-06-07T19:53:06.825Z,14.98
2023-06-07T19:55:35.485Z,14.90
2023-06-07T19:58:04.536Z,14.93
2023-06-07T20:00:32.992Z,14.70
2023-06-07T20:03:03.629Z,14.94
2023-06-07T20:05:32.550Z,14.92
2023-06-07T20:08:01.728Z,14.78
2023-06-07T20:10:30.193Z,14.85
2023-06-07T20:12:58.879Z,14.61
2023-06-07T20:15:27.897Z,14.75
2023-06-07T20:17:56.918Z,14.60
2023-06-07T20:20:26.860Z,14.55
2023-06-07T20:22:55.490Z,14.42
2023-06-07T20:25:29.014Z,14.52
2023-06-07T20:27:57.586Z,14.33
2023-06-07T20:30:27.330Z,14.18
2023-06-07T20:32:56.071Z,14.09
2023-06-07T20:35:24.505Z,14.02
2023-06-07T20:37:56.572Z,14.18
2023-06-07T20:40:25.086Z,14.01
2023-06-07T20:42:55.159Z,13.96
2023-06-07T20:45:23.663Z,13.88
2023-06-07T20:47:52.994Z,13.85
2023-06-07T20:50:21.860Z,13.91
2023-06-07T20:52:50.401Z,13.82
2023-06-07T20:55:22.504Z,13.83
2023-06-07T20:57:51.240Z,13.68
2023-06-07T21:00:21.361Z,13.77
2023-06-07T21:02:50.437Z,13.70
2023-06-07T21:05:20.720Z,13.76
2023-06-07T21:07:49.420Z,13.63
2023-06-07T21:10:19.809Z,13.60
2023-06-07T21:12:48.329Z,13.65
2023-06-07T21:15:16.947Z,13.72
2023-06-07T21:17:45.979Z,13.70
2023-06-07T21:20:15.976Z,13.69
2023-06-07T21:22:45.219Z,13.52
2023-06-07T21:25:13.848Z,13.39
2023-06-07T21:27:43.958Z,13.45
2023-06-07T21:30:13.031Z,13.37
2023-06-07T21:32:41.851Z,13.52
2023-06-07T21:35:10.470Z,13.41
2023-06-07T21:37:39.356Z,13.40
2023-06-07T21:40:09.869Z,13.36
2023-06-07T21:42:38.693Z,13.32
2023-06-07T21:45:10.627Z,13.31
2023-06-07T21:47:39.260Z,13.30
2023-06-07T21:50:08.917Z,13.27
2023-06-07T21:52:39.832Z,13.33
2023-06-07T21:55:12.247Z,13.50
2023-06-07T21:57:40.952Z,13.33
2023-06-07T22:00:13.074Z,13.32
2023-06-07T22:02:42.079Z,13.21
2023-06-07T22:05:11.376Z,13.25
2023-06-07T22:07:40.181Z,13.21
2023-06-07T22:10:10.067Z,13.17
2023-06-07T22:12:42.061Z,13.23
2023-06-07T22:15:14.403Z,13.27
2023-06-07T22:17:43.716Z,13.30
2023-06-07T22:20:12.978Z,13.33
2023-06-07T22:22:41.449Z,13.33
2023-06-07T22:25:10.808Z,13.33
2023-06-07T22:27:39.349Z,13.21
2023-06-07T22:30:09.813Z,13.06
2023-06-07T22:32:40.760Z,12.98
2023-06-07T22:35:11.234Z,12.96
2023-06-07T22:37:40.519Z,12.96
2023-06-07T22:40:11.020Z,13.02
2023-06-07T22:42:40.193Z,13.06
2023-06-07T22:45:09.769Z,13.10
2023-06-07T22:47:40.370Z,13.13
2023-06-07T22:50:09.868Z,13.05
2023-06-07T22:52:39.153Z,12.98
2023-06-07T22:55:12.452Z,12.95
2023-06-07T22:57:43.221Z,13.01
2023-06-07T23:00:14.104Z,13.02
2023-06-07T23:02:44.350Z,12.98
2023-06-07T23:05:19.347Z,13.00
2023-06-07T23:07:50.365Z,12.92
2023-06-07T23:10:21.878Z,12.94
2023-06-07T23:12:54.734Z,12.90
2023-06-07T23:15:24.748Z,12.76
2023-06-07T23:17:57.122Z,12.78
2023-06-07T23:20:26.060Z,12.84
2023-06-07T23:22:57.467Z,12.88
2023-06-07T23:25:26.100Z,12.93
2023-06-07T23:27:54.613Z,12.89
2023-06-07T23:30:23.438Z,12.90
2023-06-07T23:32:52.172Z,12.85
2023-06-07T23:35:25.759Z,12.78
2023-06-07T23:37:54.243Z,12.71
2023-06-07T23:40:23.353Z,12.67
2023-06-07T23:42:53.623Z,12.71
2023-06-07T23:45:23.193Z,12.63
2023-06-07T23:47:52.250Z,12.57
2023-06-07T23:50:21.040Z,12.28
2023-06-07T23:52:51.213Z,12.12
2023-06-07T23:55:19.712Z,12.16
2023-06-07T23:57:48.374Z,12.31
